Time;durP1;ratioP1;P1;durP2;ratioP2;P2;SDS_P1;SDS_P2;PMS_P1;PMS_P2;Temp;Humidity;BMP_temperature;BMP_pressure;BME280_temperature;BME280_humidity;BME280_pressure;Samples;Min_cycle;Max_cycle;Signal;HPM_P1;HPM_P2
2024/01/03 00:01:07;;;;;;;0.00;0.00;;;24.70;49.10;;;;;;5069839;28;20250;-47
2024/01/03 00:03:37;;;;;;;0.00;0.00;;;24.70;49.00;;;;;;5067099;28;20575;-50
2024/01/03 00:06:09;;;;;;;0.00;0.00;;;24.70;48.90;;;;;;5067894;28;20702;-50
2024/01/03 00:08:44;;;;;;;0.00;0.00;;;24.70;48.90;;;;;;5066310;28;20218;-50
2024/01/03 00:11:21;;;;;;;0.00;0.00;;;24.70;48.90;;;;;;5067143;28;20211;-50
2024/01/03 00:14:09;;;;;;;0.00;0.00;;;24.70;48.90;;;;;;5067014;28;20234;-49
2024/01/03 00:16:43;;;;;;;0.00;0.00;;;24.70;48.70;;;;;;5066404;28;20681;-44
2024/01/03 00:19:21;;;;;;;0.00;0.00;;;24.70;48.70;;;;;;5066215;28;20225;-47
2024/01/03 00:21:52;;;;;;;0.00;0.00;;;24.80;48.70;;;;;;5069846;28;20182;-45
2024/01/03 00:24:24;;;;;;;0.00;0.00;;;24.80;48.70;;;;;;5070079;28;20572;-47
2024/01/03 00:26:56;;;;;;;0.00;0.00;;;24.80;48.70;;;;;;5070942;28;20206;-48
2024/01/03 00:29:56;;;;;;;0.10;0.10;;;24.80;48.70;;;;;;5069942;28;20227;-48
2024/01/03 00:32:27;;;;;;;0.00;0.00;;;24.80;48.70;;;;;;4988874;28;20293;-45
2024/01/03 00:34:59;;;;;;;0.00;0.00;;;24.80;48.80;;;;;;5054563;28;20233;-44
2024/01/03 00:37:31;;;;;;;0.00;0.00;;;24.80;48.80;;;;;;5058216;28;20187;-48
2024/01/03 00:40:07;;;;;;;0.00;0.00;;;24.80;48.90;;;;;;5070019;28;20222;-46
2024/01/03 00:42:38;;;;;;;0.00;0.00;;;24.80;49.30;;;;;;5070237;28;20666;-47
2024/01/03 00:45:09;;;;;;;0.00;0.00;;;24.80;49.80;;;;;;5070645;28;20210;-46
2024/01/03 00:47:47;;;;;;;0.00;0.00;;;24.90;50.50;;;;;;5070555;28;20558;-48
2024/01/03 00:50:18;;;;;;;0.00;0.00;;;24.90;50.10;;;;;;5089069;28;20205;-46
2024/01/03 00:52:48;;;;;;;0.00;0.00;;;24.90;50.10;;;;;;5081355;28;20214;-50
2024/01/03 00:55:21;;;;;;;0.00;0.00;;;24.90;50.20;;;;;;5069648;28;20753;-48
2024/01/03 00:57:52;;;;;;;0.05;0.05;;;24.90;50.40;;;;;;5069635;28;20191;-49
2024/01/03 01:00:23;;;;;;;0.00;0.00;;;25.00;50.40;;;;;;5070740;28;20198;-47
2024/01/03 01:02:53;;;;;;;0.00;0.00;;;25.00;50.70;;;;;;5073759;28;20203;-46
2024/01/03 01:05:24;;;;;;;0.00;0.00;;;25.00;50.60;;;;;;5073788;28;20202;-50
2024/01/03 01:07:55;;;;;;;0.00;0.00;;;25.10;50.70;;;;;;5073100;28;20207;-59
2024/01/03 01:10:28;;;;;;;0.00;0.00;;;25.10;50.80;;;;;;5073669;28;20543;-60
2024/01/03 01:12:58;;;;;;;0.00;0.00;;;25.10;51.30;;;;;;5073252;28;20199;-57
2024/01/03 01:15:29;;;;;;;0.00;0.00;;;25.00;51.50;;;;;;5073407;28;20619;-45
2024/01/03 01:18:00;;;;;;;0.08;0.08;;;25.00;51.50;;;;;;5073781;28;20195;-45
2024/01/03 01:20:30;;;;;;;0.00;0.00;;;25.00;51.50;;;;;;5073492;28;20572;-45
2024/01/03 01:23:01;;;;;;;0.00;0.00;;;24.90;51.30;;;;;;5071741;28;20187;-45
2024/01/03 01:25:34;;;;;;;0.00;0.00;;;25.00;51.10;;;;;;5073337;28;20202;-47
2024/01/03 01:28:04;;;;;;;0.00;0.00;;;25.00;51.20;;;;;;5073509;28;20227;-45
2024/01/03 01:30:35;;;;;;;0.00;0.00;;;25.00;51.20;;;;;;5073278;28;20195;-45
2024/01/03 01:33:06;;;;;;;0.00;0.00;;;25.00;51.10;;;;;;5073322;28;20190;-45
2024/01/03 01:35:37;;;;;;;0.00;0.00;;;25.00;51.10;;;;;;5071985;28;20702;-45
2024/01/03 01:38:07;;;;;;;0.00;0.00;;;25.00;51.00;;;;;;5072560;28;20215;-45
2024/01/03 01:40:40;;;;;;;0.00;0.00;;;25.00;51.00;;;;;;5073288;28;20198;-44
2024/01/03 01:43:11;;;;;;;0.00;0.00;;;25.10;51.00;;;;;;5073443;28;20286;-43
2024/01/03 01:45:42;;;;;;;0.00;0.00;;;25.10;51.10;;;;;;5073023;28;20195;-43
2024/01/03 01:48:13;;;;;;;0.00;0.00;;;25.10;51.00;;;;;;5073846;28;20215;-42
2024/01/03 01:50:44;;;;;;;0.00;0.00;;;25.10;50.90;;;;;;5089878;28;20192;-47
2024/01/03 01:53:15;;;;;;;0.00;0.00;;;25.10;50.80;;;;;;5081447;28;20187;-44
2024/01/03 01:55:48;;;;;;;0.00;0.00;;;25.10;50.80;;;;;;5073172;28;20229;-46
2024/01/03 01:58:19;;;;;;;0.00;0.00;;;25.10;50.70;;;;;;5072726;28;20694;-44
2024/01/03 02:00:50;;;;;;;0.00;0.00;;;25.20;50.80;;;;;;5072926;28;20281;-51
2024/01/03 02:03:21;;;;;;;0.00;0.00;;;25.20;50.80;;;;;;5072296;28;20728;-44
2024/01/03 02:05:52;;;;;;;0.00;0.00;;;25.20;50.80;;;;;;5071828;28;20207;-46
2024/01/03 02:08:24;;;;;;;0.00;0.00;;;25.20;50.70;;;;;;5071481;28;20226;-44
2024/01/03 02:10:57;;;;;;;0.00;0.00;;;25.20;50.60;;;;;;5072038;28;20191;-43
2024/01/03 02:13:27;;;;;;;0.00;0.00;;;25.20;50.50;;;;;;5072482;28;20209;-45
2024/01/03 02:15:58;;;;;;;0.00;0.00;;;25.20;50.40;;;;;;5072398;28;20227;-46
2024/01/03 02:18:29;;;;;;;0.00;0.00;;;25.20;50.50;;;;;;5069889;28;20222;-42
2024/01/03 02:21:00;;;;;;;0.00;0.00;;;25.30;50.50;;;;;;5071557;28;20201;-43
2024/01/03 02:23:33;;;;;;;0.00;0.00;;;25.30;50.70;;;;;;5079046;28;20194;-44
2024/01/03 02:26:03;;;;;;;0.00;0.00;;;25.30;50.60;;;;;;5092547;28;20251;-44
2024/01/03 02:28:34;;;;;;;0.00;0.00;;;25.30;50.40;;;;;;5092439;28;20720;-46
2024/01/03 02:31:05;;;;;;;0.00;0.00;;;25.30;50.40;;;;;;5092939;28;20201;-50
2024/01/03 02:33:36;;;;;;;0.00;0.00;;;25.30;50.40;;;;;;5089913;28;20197;-46
2024/01/03 02:36:06;;;;;;;0.00;0.00;;;25.30;50.50;;;;;;5071085;28;20226;-48
2024/01/03 02:38:38;;;;;;;0.00;0.00;;;25.30;50.60;;;;;;5071498;28;20222;-50
2024/01/03 02:41:09;;;;;;;0.00;0.00;;;25.40;50.70;;;;;;5060334;28;20196;-50
2024/01/03 02:43:39;;;;;;;0.00;0.00;;;25.40;50.70;;;;;;5052049;28;20199;-46
2024/01/03 02:46:10;;;;;;;0.00;0.00;;;25.40;50.80;;;;;;5068687;28;20203;-49
2024/01/03 02:48:42;;;;;;;0.00;0.00;;;25.40;50.70;;;;;;5078872;22;20234;-53
2024/01/03 02:51:21;;;;;;;0.00;0.00;;;25.40;50.80;;;;;;5053045;28;20211;-51
2024/01/03 02:53:54;;;;;;;0.00;0.00;;;25.40;50.90;;;;;;5071192;28;20642;-47
2024/01/03 02:56:24;;;;;;;0.00;0.00;;;25.50;50.80;;;;;;5071693;28;20669;-48
2024/01/03 02:58:55;;;;;;;0.00;0.00;;;25.50;50.70;;;;;;5071400;28;20276;-46
2024/01/03 03:01:26;;;;;;;0.00;0.00;;;25.50;50.70;;;;;;5071324;28;20191;-47
2024/01/03 03:03:56;;;;;;;0.00;0.00;;;25.50;50.70;;;;;;5071189;28;20201;-46
2024/01/03 03:06:27;;;;;;;0.00;0.00;;;25.50;50.70;;;;;;5070439;28;20534;-47
2024/01/03 03:08:59;;;;;;;0.00;0.00;;;25.50;50.70;;;;;;5070704;28;20251;-46
2024/01/03 03:11:30;;;;;;;0.00;0.00;;;25.60;50.70;;;;;;5071396;28;20685;-46
2024/01/03 03:14:01;;;;;;;0.00;0.00;;;25.60;50.70;;;;;;5071751;28;20210;-47
2024/01/03 03:16:31;;;;;;;0.00;0.00;;;25.60;50.70;;;;;;5071617;28;20194;-48
2024/01/03 03:19:03;;;;;;;0.00;0.00;;;25.60;50.60;;;;;;5071367;28;20691;-47
2024/01/03 03:21:34;;;;;;;0.00;0.00;;;25.60;50.60;;;;;;5070906;28;20198;-46
2024/01/03 03:24:07;;;;;;;0.00;0.00;;;25.60;50.60;;;;;;5070751;28;20646;-46
2024/01/03 03:26:38;;;;;;;0.00;0.00;;;25.60;50.70;;;;;;5071367;28;20673;-47
2024/01/03 03:29:08;;;;;;;0.00;0.00;;;25.60;50.60;;;;;;5071228;28;20218;-46
2024/01/03 03:31:39;;;;;;;0.00;0.00;;;25.70;50.70;;;;;;5071632;28;20346;-47
2024/01/03 03:34:09;;;;;;;0.10;0.10;;;25.70;50.60;;;;;;5071439;28;20195;-48
2024/01/03 03:36:40;;;;;;;0.00;0.00;;;25.70;50.60;;;;;;5070835;28;20198;-46
2024/01/03 03:39:13;;;;;;;0.00;0.00;;;25.70;50.60;;;;;;5070888;28;20215;-46
2024/01/03 03:41:44;;;;;;;0.00;0.00;;;25.70;50.70;;;;;;5070404;28;20191;-46
2024/01/03 03:44:14;;;;;;;0.00;0.00;;;25.80;50.60;;;;;;5070687;28;20218;-46
2024/01/03 03:46:45;;;;;;;0.00;0.00;;;25.70;50.50;;;;;;5071038;28;20194;-46
2024/01/03 03:49:15;;;;;;;0.00;0.00;;;25.70;50.60;;;;;;5083892;22;20563;-50
2024/01/03 03:51:46;;;;;;;0.00;0.00;;;25.80;50.70;;;;;;5070630;28;20206;-48
2024/01/03 03:54:18;;;;;;;0.00;0.00;;;25.80;50.70;;;;;;5070734;28;20191;-46
2024/01/03 03:56:49;;;;;;;0.00;0.00;;;25.80;50.60;;;;;;5071109;28;20195;-45
2024/01/03 03:59:20;;;;;;;0.00;0.00;;;25.80;50.50;;;;;;5074346;28;20214;-46
2024/01/03 04:01:54;;;;;;;0.00;0.00;;;25.80;50.40;;;;;;5075096;28;20198;-46
2024/01/03 04:04:25;;;;;;;0.00;0.00;;;25.80;50.40;;;;;;5074863;28;20272;-46
2024/01/03 04:06:56;;;;;;;0.00;0.00;;;25.90;50.50;;;;;;5074572;28;20217;-46
2024/01/03 04:09:28;;;;;;;0.00;0.00;;;25.80;50.40;;;;;;5074753;28;20728;-46
2024/01/03 04:11:59;;;;;;;0.00;0.00;;;25.90;50.40;;;;;;5074668;28;20611;-44
2024/01/03 04:14:29;;;;;;;0.00;0.00;;;25.90;50.40;;;;;;5074400;28;20201;-46
2024/01/03 04:17:00;;;;;;;0.00;0.00;;;25.90;50.40;;;;;;5074838;28;20202;-45
2024/01/03 04:19:31;;;;;;;0.00;0.00;;;25.90;50.50;;;;;;5074929;28;20225;-47
2024/01/03 04:22:02;;;;;;;0.00;0.00;;;25.90;50.50;;;;;;5074377;28;20726;-46
2024/01/03 04:24:34;;;;;;;0.00;0.00;;;25.90;50.40;;;;;;5074819;28;20195;-46
2024/01/03 04:27:05;;;;;;;0.00;0.00;;;25.90;50.40;;;;;;5074461;28;20462;-46
2024/01/03 04:29:36;;;;;;;0.00;0.00;;;25.90;50.50;;;;;;5073986;28;20226;-42
2024/01/03 04:32:07;;;;;;;0.00;0.00;;;25.90;50.40;;;;;;5073991;28;20689;-46
2024/01/03 04:34:40;;;;;;;0.00;0.00;;;25.90;50.40;;;;;;5074543;28;20666;-45
2024/01/03 04:37:10;;;;;;;0.00;0.00;;;26.00;50.50;;;;;;5074046;28;20199;-46
2024/01/03 04:39:43;;;;;;;0.00;0.00;;;26.00;50.40;;;;;;5073949;28;20218;-45
2024/01/03 04:42:14;;;;;;;0.00;0.00;;;26.00;50.50;;;;;;5074275;28;20201;-45
2024/01/03 04:44:45;;;;;;;0.00;0.00;;;26.00;50.40;;;;;;5073938;28;20539;-49
2024/01/03 04:47:15;;;;;;;0.00;0.00;;;26.00;50.50;;;;;;5074538;28;20226;-45
2024/01/03 04:49:46;;;;;;;0.00;0.00;;;26.00;50.40;;;;;;5074444;28;20226;-44
2024/01/03 04:52:17;;;;;;;0.00;0.00;;;26.00;50.40;;;;;;5074378;28;20194;-59
2024/01/03 04:54:49;;;;;;;0.00;0.00;;;26.00;50.50;;;;;;5073632;28;20560;-57
2024/01/03 04:57:20;;;;;;;0.00;0.00;;;26.00;50.60;;;;;;5073799;28;20674;-48
2024/01/03 04:59:50;;;;;;;0.00;0.00;;;25.90;50.60;;;;;;5073522;28;20576;-45
2024/01/03 05:02:21;;;;;;;0.10;0.10;;;25.90;50.70;;;;;;5073902;28;20194;-46
2024/01/03 05:04:52;;;;;;;0.00;0.00;;;25.80;50.70;;;;;;5069116;28;20198;-47
2024/01/03 05:07:22;;;;;;;0.00;0.00;;;25.80;50.80;;;;;;5067685;28;20203;-46
2024/01/03 05:09:55;;;;;;;0.00;0.00;;;25.70;50.80;;;;;;5069726;28;20218;-46
2024/01/03 05:12:25;;;;;;;0.00;0.00;;;25.70;50.90;;;;;;5069703;28;20187;-42
2024/01/03 05:14:56;;;;;;;0.00;0.00;;;25.70;50.90;;;;;;5069964;28;20788;-44
2024/01/03 05:17:27;;;;;;;0.00;0.00;;;25.70;51.00;;;;;;5069373;28;20203;-45
2024/01/03 05:19:58;;;;;;;0.00;0.00;;;25.70;51.00;;;;;;5069675;28;21430;-42
2024/01/03 05:22:30;;;;;;;0.00;0.00;;;25.70;51.00;;;;;;5069159;28;20195;-46
2024/01/03 05:25:02;;;;;;;0.00;0.00;;;25.70;51.00;;;;;;5070091;28;20202;-45
2024/01/03 05:27:33;;;;;;;0.00;0.00;;;25.70;51.00;;;;;;5068633;28;20686;-46
2024/01/03 05:30:04;;;;;;;0.00;0.00;;;25.70;51.00;;;;;;5068900;28;20226;-46
2024/01/03 05:32:34;;;;;;;0.00;0.00;;;25.70;51.00;;;;;;5069988;28;20651;-44
2024/01/03 05:35:06;;;;;;;0.00;0.00;;;25.70;51.00;;;;;;5068520;28;20588;-45
2024/01/03 05:37:36;;;;;;;0.00;0.00;;;25.70;51.00;;;;;;5068792;28;20199;-43
2024/01/03 05:40:10;;;;;;;0.00;0.00;;;25.70;50.90;;;;;;5068398;28;20234;-44
2024/01/03 05:42:40;;;;;;;0.00;0.00;;;25.70;50.90;;;;;;5069745;28;20199;-43
2024/01/03 05:45:12;;;;;;;0.00;0.00;;;25.80;51.00;;;;;;5068528;28;20588;-44
2024/01/03 05:47:43;;;;;;;0.00;0.00;;;25.70;50.90;;;;;;5069374;28;20233;-41
2024/01/03 05:50:14;;;;;;;0.00;0.00;;;25.70;50.90;;;;;;5069173;28;21025;-42
2024/01/03 05:52:44;;;;;;;0.00;0.00;;;25.70;50.90;;;;;;5069064;28;20194;-44
2024/01/03 05:55:17;;;;;;;0.00;0.00;;;25.70;50.90;;;;;;5068269;28;20223;-43
2024/01/03 05:57:48;;;;;;;0.00;0.00;;;25.80;50.90;;;;;;5069100;28;20202;-45
2024/01/03 06:00:19;;;;;;;0.00;0.00;;;25.80;50.90;;;;;;5068459;28;20709;-44
2024/01/03 06:02:50;;;;;;;0.00;0.00;;;25.80;50.80;;;;;;5068713;28;20589;-43
2024/01/03 06:05:20;;;;;;;0.00;0.00;;;25.80;50.80;;;;;;5068218;28;20206;-43
2024/01/03 06:07:51;;;;;;;0.00;0.00;;;25.80;50.80;;;;;;5068455;28;20205;-47
2024/01/03 06:10:23;;;;;;;0.00;0.00;;;25.80;50.80;;;;;;5068980;28;20230;-43
2024/01/03 06:12:54;;;;;;;0.00;0.00;;;25.80;50.70;;;;;;5068217;28;20273;-44
2024/01/03 06:15:25;;;;;;;0.00;0.00;;;25.80;50.70;;;;;;5068738;28;20218;-45
2024/01/03 06:17:55;;;;;;;0.00;0.00;;;25.80;50.70;;;;;;5067846;28;20186;-46
2024/01/03 06:20:26;;;;;;;0.00;0.00;;;25.80;50.70;;;;;;5068120;28;20222;-45
2024/01/03 06:22:56;;;;;;;0.00;0.00;;;25.80;50.70;;;;;;5068747;28;20222;-44
2024/01/03 06:25:31;;;;;;;0.00;0.00;;;25.80;50.70;;;;;;5068115;28;20859;-43
2024/01/03 06:28:01;;;;;;;0.00;0.00;;;25.80;50.80;;;;;;5068248;28;20282;-47
2024/01/03 06:30:32;;;;;;;0.00;0.00;;;25.80;50.80;;;;;;5068458;28;20210;-48
2024/01/03 06:33:02;;;;;;;0.00;0.00;;;25.80;50.80;;;;;;5067825;28;20206;-45
2024/01/03 06:35:34;;;;;;;0.00;0.00;;;25.80;50.80;;;;;;5067656;28;20324;-46
2024/01/03 06:38:05;;;;;;;0.00;0.00;;;25.80;50.80;;;;;;5068327;28;20230;-46
2024/01/03 06:40:37;;;;;;;0.00;0.00;;;25.80;50.80;;;;;;5067899;28;20638;-45
2024/01/03 06:43:08;;;;;;;0.00;0.00;;;25.80;50.80;;;;;;5068261;28;20195;-45
2024/01/03 06:45:39;;;;;;;0.00;0.00;;;25.80;50.80;;;;;;5068258;28;20199;-45
2024/01/03 06:48:10;;;;;;;0.00;0.00;;;25.80;50.80;;;;;;5068168;28;20297;-47
2024/01/03 06:50:41;;;;;;;0.00;0.00;;;25.80;50.70;;;;;;5069030;28;20659;-46
2024/01/03 06:53:11;;;;;;;0.00;0.00;;;25.80;50.70;;;;;;5067326;28;20205;-44
2024/01/03 06:55:44;;;;;;;0.00;0.00;;;25.90;50.80;;;;;;5067910;28;20227;-46
2024/01/03 06:58:15;;;;;;;0.00;0.00;;;25.80;50.70;;;;;;5067455;28;20659;-43
2024/01/03 07:00:45;;;;;;;0.00;0.00;;;25.80;50.60;;;;;;5067948;28;20674;-44
2024/01/03 07:03:16;;;;;;;0.00;0.00;;;25.80;50.60;;;;;;5071552;28;20194;-45
2024/01/03 07:05:47;;;;;;;0.00;0.00;;;25.90;50.60;;;;;;5071832;28;20209;-46
2024/01/03 07:08:17;;;;;;;0.00;0.00;;;25.80;50.60;;;;;;5071555;28;20216;-48
2024/01/03 07:10:50;;;;;;;0.00;0.00;;;25.90;50.60;;;;;;5072136;28;20199;-46
2024/01/03 07:13:20;;;;;;;0.00;0.00;;;25.90;50.60;;;;;;5071575;28;20199;-48
2024/01/03 07:15:51;;;;;;;0.00;0.00;;;25.80;50.50;;;;;;5071621;28;20218;-48
2024/01/03 07:18:21;;;;;;;0.00;0.00;;;25.80;50.50;;;;;;5070495;28;20201;-48
2024/01/03 07:20:52;;;;;;;0.00;0.00;;;25.80;50.50;;;;;;5070855;28;20281;-48
2024/01/03 07:23:23;;;;;;;0.00;0.00;;;25.80;50.50;;;;;;5070643;28;20206;-48
2024/01/03 07:25:55;;;;;;;0.00;0.00;;;25.80;50.50;;;;;;5070983;28;20196;-46
2024/01/03 07:28:26;;;;;;;0.00;0.00;;;25.80;50.50;;;;;;5070956;28;20194;-48
2024/01/03 07:30:56;;;;;;;0.00;0.00;;;25.80;50.50;;;;;;5070021;28;20194;-48
2024/01/03 07:33:29;;;;;;;0.00;0.00;;;25.80;50.50;;;;;;5069666;28;20210;-48
2024/01/03 07:35:59;;;;;;;0.00;0.00;;;25.80;50.50;;;;;;5070739;28;20621;-46
2024/01/03 07:38:30;;;;;;;0.00;0.00;;;25.80;50.50;;;;;;5070507;28;20223;-46
2024/01/03 07:41:03;;;;;;;0.00;0.00;;;25.80;50.40;;;;;;5070812;28;20256;-48
2024/01/03 07:43:33;;;;;;;0.00;0.00;;;25.70;50.40;;;;;;5071681;28;20214;-47
2024/01/03 07:46:04;;;;;;;0.00;0.00;;;25.80;50.40;;;;;;5071456;28;20194;-48
2024/01/03 07:48:34;;;;;;;0.00;0.00;;;25.70;50.40;;;;;;5071436;28;20248;-49
2024/01/03 07:51:05;;;;;;;0.00;0.00;;;25.70;50.30;;;;;;5071007;28;20651;-48
2024/01/03 07:53:37;;;;;;;0.00;0.00;;;25.70;50.30;;;;;;5070523;28;20201;-47
2024/01/03 07:56:10;;;;;;;0.00;0.00;;;25.70;50.30;;;;;;5070630;28;20215;-47
2024/01/03 07:58:41;;;;;;;0.00;0.00;;;25.70;50.30;;;;;;5070990;28;20631;-49
2024/01/03 08:01:11;;;;;;;0.00;0.00;;;25.70;50.30;;;;;;5071115;28;20195;-47
2024/01/03 08:03:42;;;;;;;0.00;0.00;;;25.70;50.30;;;;;;5070571;28;20565;-45
2024/01/03 08:06:13;;;;;;;0.00;0.00;;;25.70;50.40;;;;;;5070973;28;20198;-48
2024/01/03 08:08:43;;;;;;;0.00;0.00;;;25.70;50.40;;;;;;5070722;28;20563;-49
2024/01/03 08:11:16;;;;;;;0.00;0.00;;;25.60;50.30;;;;;;5071028;28;20206;-45
2024/01/03 08:13:47;;;;;;;0.00;0.00;;;25.60;50.30;;;;;;5071125;28;20195;-46
2024/01/03 08:16:17;;;;;;;0.00;0.00;;;25.60;50.30;;;;;;5071161;28;20222;-48
2024/01/03 08:18:48;;;;;;;0.00;0.00;;;25.60;50.30;;;;;;5070069;28;20218;-45
2024/01/03 08:21:19;;;;;;;0.00;0.00;;;25.60;50.30;;;;;;5070600;28;20234;-49
2024/01/03 08:23:50;;;;;;;0.00;0.00;;;25.60;50.30;;;;;;5070052;28;20199;-46
2024/01/03 08:26:23;;;;;;;0.00;0.00;;;25.60;50.30;;;;;;5070501;28;20281;-48
2024/01/03 08:28:54;;;;;;;0.00;0.00;;;25.60;50.30;;;;;;5070194;28;20215;-49
2024/01/03 08:31:25;;;;;;;0.00;0.00;;;25.60;50.30;;;;;;5070182;28;20195;-47
2024/01/03 08:33:55;;;;;;;0.00;0.00;;;25.60;50.20;;;;;;5070161;28;20199;-46
2024/01/03 08:36:40;;;;;;;0.00;0.00;;;25.60;50.20;;;;;;5050430;28;20220;-48
2024/01/03 08:39:11;;;;;;;0.00;0.00;;;25.50;50.20;;;;;;5050022;28;20222;-60
2024/01/03 08:41:43;;;;;;;0.00;0.00;;;25.50;50.40;;;;;;5059833;28;20685;-60
2024/01/03 08:44:17;;;;;;;0.00;0.00;;;25.50;50.80;;;;;;5071644;28;20199;-60
2024/01/03 08:46:47;;;;;;;0.00;0.00;;;25.40;51.00;;;;;;5073140;28;20186;-47
2024/01/03 08:49:18;;;;;;;0.00;0.00;;;25.30;51.00;;;;;;5085813;22;20332;-48
2024/01/03 08:51:49;;;;;;;0.00;0.00;;;25.20;51.10;;;;;;5071340;28;20190;-48
2024/01/03 08:54:20;;;;;;;0.00;0.00;;;25.10;51.20;;;;;;5073478;28;20202;-48
2024/01/03 08:56:53;;;;;;;0.00;0.00;;;25.10;51.40;;;;;;5073406;28;20218;-45
2024/01/03 08:59:24;;;;;;;0.00;0.00;;;25.00;51.40;;;;;;5073698;28;20223;-46
2024/01/03 09:01:56;;;;;;;0.00;0.00;;;25.00;51.50;;;;;;5073488;28;20190;-45
2024/01/03 09:04:26;;;;;;;0.00;0.00;;;25.00;51.50;;;;;;5055557;28;20260;-48
2024/01/03 09:06:57;;;;;;;0.00;0.00;;;25.00;51.50;;;;;;5049519;28;20655;-45
2024/01/03 09:09:27;;;;;;;0.00;0.00;;;25.00;51.50;;;;;;5048352;28;20215;-47
2024/01/03 09:12:00;;;;;;;0.00;0.00;;;25.00;51.50;;;;;;5050003;28;20526;-45
2024/01/03 09:14:31;;;;;;;0.00;0.00;;;25.00;51.40;;;;;;5050656;28;20203;-46
2024/01/03 09:17:01;;;;;;;0.00;0.00;;;24.90;51.40;;;;;;5049796;28;20223;-46
2024/01/03 09:19:32;;;;;;;0.00;0.00;;;24.90;51.40;;;;;;5049667;28;20234;-45
2024/01/03 09:22:03;;;;;;;0.00;0.00;;;25.00;51.40;;;;;;5049828;28;20231;-45
2024/01/03 09:24:34;;;;;;;0.00;0.00;;;24.90;51.30;;;;;;5048894;28;20266;-45
2024/01/03 09:27:06;;;;;;;0.00;0.00;;;24.90;51.20;;;;;;5049879;28;20206;-45
2024/01/03 09:29:37;;;;;;;0.00;0.00;;;24.90;51.10;;;;;;5049459;28;20215;-47
2024/01/03 09:32:08;;;;;;;0.00;0.00;;;24.90;51.10;;;;;;5048288;28;20195;-49
2024/01/03 09:34:42;;;;;;;0.00;0.00;;;25.00;51.00;;;;;;5049647;28;20299;-46
2024/01/03 09:37:13;;;;;;;0.00;0.00;;;24.90;51.00;;;;;;5049112;28;20596;-48
2024/01/03 09:39:44;;;;;;;0.00;0.00;;;24.90;50.90;;;;;;5048727;28;20721;-49
2024/01/03 09:42:17;;;;;;;0.00;0.00;;;24.90;50.90;;;;;;5049128;28;20219;-46
2024/01/03 09:44:48;;;;;;;0.00;0.00;;;24.90;50.80;;;;;;5049785;28;20203;-47
2024/01/03 09:47:20;;;;;;;0.00;0.00;;;24.90;50.80;;;;;;5048857;28;20206;-47
2024/01/03 09:49:51;;;;;;;0.00;0.00;;;24.90;50.80;;;;;;5048853;28;20228;-46
2024/01/03 09:52:22;;;;;;;0.00;0.00;;;24.90;50.70;;;;;;5069334;22;20230;-45
2024/01/03 09:54:54;;;;;;;0.00;0.00;;;24.90;50.70;;;;;;5069127;28;20659;-48
2024/01/03 09:57:28;;;;;;;0.00;0.00;;;24.90;50.70;;;;;;5068229;28;20229;-43
2024/01/03 09:59:59;;;;;;;0.00;0.00;;;24.90;50.60;;;;;;5057316;28;20223;-47
2024/01/03 10:02:30;;;;;;;0.00;0.00;;;24.80;50.50;;;;;;5048806;28;20196;-44
2024/01/03 10:05:01;;;;;;;0.00;0.00;;;24.90;50.50;;;;;;5049199;28;20229;-46
2024/01/03 10:07:35;;;;;;;0.08;0.08;;;24.90;50.40;;;;;;5046975;28;21107;-48
2024/01/03 10:10:07;;;;;;;0.03;0.03;;;24.80;50.30;;;;;;5047459;28;20226;-43
2024/01/03 10:12:39;;;;;;;0.03;0.03;;;24.80;50.30;;;;;;5050243;28;20285;-44
2024/01/03 10:15:17;;;;;;;0.00;0.00;;;24.80;50.20;;;;;;5048933;28;20571;-48
2024/01/03 10:17:49;;;;;;;0.00;0.00;;;24.80;50.00;;;;;;5049199;28;20318;-48
2024/01/03 10:20:29;;;;;;;0.00;0.00;;;24.70;49.90;;;;;;5048320;28;20219;-44
2024/01/03 10:23:11;;;;;;;0.00;0.00;;;24.70;49.90;;;;;;5067000;28;20190;-48
2024/01/03 10:25:41;;;;;;;0.00;0.00;;;24.70;49.90;;;;;;5059880;28;20644;-46
2024/01/03 10:28:18;;;;;;;0.00;0.00;;;24.70;49.80;;;;;;5048360;28;20206;-48
2024/01/03 10:30:55;;;;;;;0.00;0.00;;;24.70;49.80;;;;;;5049013;28;20199;-48
2024/01/03 10:33:26;;;;;;;0.00;0.00;;;24.60;49.70;;;;;;5028564;28;20196;-45
2024/01/03 10:35:57;;;;;;;0.00;0.00;;;24.60;49.70;;;;;;5029353;28;20204;-47
2024/01/03 10:38:29;;;;;;;0.00;0.00;;;24.60;49.60;;;;;;5047756;28;20262;-46
2024/01/03 10:41:00;;;;;;;0.00;0.00;;;24.60;49.60;;;;;;5048323;28;20199;-47
2024/01/03 10:43:34;;;;;;;0.00;0.00;;;24.50;49.60;;;;;;5067432;28;20206;-45
2024/01/03 10:46:05;;;;;;;0.00;0.00;;;24.50;49.60;;;;;;5067252;28;20202;-44
2024/01/03 10:48:36;;;;;;;0.00;0.00;;;24.50;49.50;;;;;;5068144;28;20222;-45
2024/01/03 10:51:12;;;;;;;0.00;0.00;;;24.50;49.50;;;;;;5062621;28;20626;-47
2024/01/03 10:53:46;;;;;;;0.00;0.00;;;24.50;49.50;;;;;;5047187;28;20325;-44
2024/01/03 10:56:18;;;;;;;0.00;0.00;;;24.50;49.50;;;;;;5040816;28;20196;-49
2024/01/03 10:58:52;;;;;;;0.00;0.00;;;24.50;49.50;;;;;;5048233;28;20645;-48
2024/01/03 11:01:28;;;;;;;0.00;0.00;;;24.50;49.50;;;;;;5047999;28;20190;-46
2024/01/03 11:04:09;;;;;;;0.10;0.10;;;24.40;49.40;;;;;;5048222;28;20195;-43
2024/01/03 11:06:44;;;;;;;0.00;0.00;;;24.40;49.40;;;;;;5047571;28;20201;-46
2024/01/03 11:09:15;;;;;;;0.00;0.00;;;24.40;49.30;;;;;;5047634;28;20226;-43
2024/01/03 11:11:46;;;;;;;0.00;0.00;;;24.40;49.30;;;;;;5048188;28;20191;-47
2024/01/03 11:14:27;;;;;;;0.00;0.00;;;24.40;49.30;;;;;;5048091;28;20202;-45
2024/01/03 11:16:58;;;;;;;0.00;0.00;;;24.30;49.20;;;;;;5048186;28;20219;-45
2024/01/03 11:19:32;;;;;;;0.00;0.00;;;24.30;49.20;;;;;;5048018;28;20226;-41
2024/01/03 11:22:04;;;;;;;0.00;0.00;;;24.30;49.20;;;;;;5047985;28;20244;-41
2024/01/03 11:24:56;;;;;;;0.00;0.00;;;24.30;49.30;;;;;;5047086;28;20238;-47
2024/01/03 11:27:28;;;;;;;0.00;0.00;;;24.30;49.30;;;;;;5047815;28;20195;-48
2024/01/03 11:30:00;;;;;;;0.00;0.00;;;24.30;49.20;;;;;;5047935;28;20272;-47
2024/01/03 11:32:35;;;;;;;0.00;0.00;;;24.20;49.20;;;;;;5047626;28;20527;-43
2024/01/03 11:35:08;;;;;;;0.00;0.00;;;24.20;49.20;;;;;;5047312;28;20203;-48
2024/01/03 11:37:42;;;;;;;0.00;0.00;;;24.20;49.20;;;;;;5047445;28;20253;-46
2024/01/03 11:40:22;;;;;;;0.03;0.03;;;24.20;49.20;;;;;;5046265;28;20241;-41
2024/01/03 11:42:59;;;;;;;0.00;0.00;;;24.20;49.20;;;;;;5043932;28;20275;-47
2024/01/03 11:45:32;;;;;;;0.00;0.00;;;24.20;49.20;;;;;;5047813;28;20240;-46
2024/01/03 11:48:04;;;;;;;0.00;0.00;;;24.20;49.20;;;;;;5047065;28;20203;-45
2024/01/03 11:50:35;;;;;;;0.00;0.00;;;24.10;49.10;;;;;;5047683;28;20226;-45
2024/01/03 11:53:12;;;;;;;0.00;0.00;;;24.10;49.10;;;;;;5048186;28;20581;-48
2024/01/03 11:55:52;;;;;;;0.00;0.00;;;24.10;49.10;;;;;;5047081;28;20237;-44
2024/01/03 11:58:23;;;;;;;0.00;0.00;;;24.10;49.10;;;;;;5047331;28;20777;-48
2024/01/03 12:01:06;;;;;;;0.00;0.00;;;24.10;49.00;;;;;;5047072;28;20587;-48
2024/01/03 12:03:37;;;;;;;0.00;0.00;;;24.10;49.00;;;;;;5063090;28;20753;-48
2024/01/03 12:06:08;;;;;;;0.08;0.08;;;24.00;49.00;;;;;;5068184;28;20210;-48
2024/01/03 12:08:39;;;;;;;0.00;0.00;;;24.00;49.00;;;;;;5049582;28;20228;-45
2024/01/03 12:11:09;;;;;;;0.00;0.00;;;24.00;49.00;;;;;;5046519;28;20207;-47
2024/01/03 12:13:40;;;;;;;0.00;0.00;;;24.00;49.00;;;;;;5047097;28;20196;-48
2024/01/03 12:16:13;;;;;;;0.00;0.00;;;24.00;49.00;;;;;;5027447;28;20196;-48
2024/01/03 12:18:51;;;;;;;0.00;0.00;;;24.00;49.00;;;;;;5044983;28;20235;-49
2024/01/03 12:21:21;;;;;;;0.00;0.00;;;23.90;48.90;;;;;;5051518;28;20594;-45
2024/01/03 12:23:59;;;;;;;0.00;0.00;;;23.90;48.90;;;;;;5051710;28;20199;-48
2024/01/03 12:26:31;;;;;;;0.00;0.00;;;23.90;48.90;;;;;;5051067;28;20256;-45
2024/01/03 12:29:04;;;;;;;0.00;0.00;;;23.90;48.90;;;;;;5051141;28;20219;-44
2024/01/03 12:31:37;;;;;;;0.00;0.00;;;23.90;48.90;;;;;;5050486;28;20976;-44
2024/01/03 12:34:08;;;;;;;0.00;0.00;;;23.90;48.90;;;;;;5045440;28;20233;-49
2024/01/03 12:36:39;;;;;;;0.00;0.00;;;23.90;48.90;;;;;;5052160;28;20199;-51
2024/01/03 12:39:10;;;;;;;0.00;0.00;;;23.80;48.90;;;;;;5053495;28;20231;-47
2024/01/03 12:41:41;;;;;;;0.00;0.00;;;23.80;48.90;;;;;;5051570;28;20191;-46
2024/01/03 12:44:12;;;;;;;0.00;0.00;;;23.80;48.80;;;;;;5053420;28;20184;-48
2024/01/03 12:46:44;;;;;;;0.00;0.00;;;23.80;48.90;;;;;;5054403;28;20195;-48
2024/01/03 12:49:15;;;;;;;0.00;0.00;;;23.80;48.90;;;;;;5054205;28;20230;-45
2024/01/03 12:51:46;;;;;;;0.00;0.00;;;23.80;48.90;;;;;;5067238;22;20195;-50
2024/01/03 12:54:16;;;;;;;0.00;0.00;;;23.80;48.80;;;;;;5030392;28;20203;-53
2024/01/03 12:56:47;;;;;;;0.00;0.00;;;23.70;48.80;;;;;;5033622;28;20196;-53
2024/01/03 12:59:17;;;;;;;0.00;0.00;;;23.70;48.80;;;;;;5032696;28;20652;-51
2024/01/03 13:01:50;;;;;;;0.00;0.00;;;23.70;48.90;;;;;;5032813;28;20206;-54
2024/01/03 13:04:21;;;;;;;0.00;0.00;;;23.70;48.90;;;;;;5032559;28;20661;-50
2024/01/03 13:06:51;;;;;;;0.00;0.00;;;23.70;48.90;;;;;;5031189;28;20200;-52
2024/01/03 13:09:23;;;;;;;0.00;0.00;;;23.70;48.90;;;;;;5012846;28;20247;-50
2024/01/03 13:11:54;;;;;;;0.00;0.00;;;23.70;48.90;;;;;;5012957;28;20200;-50